Main page
METAR-TAF:

METAR-TAF

Airports :

San Angelo Regional Airport

San Angelo, Texas, United States

latitude: 31-21-05N, longitude: 100-29-38W, elevation: 1916 ft

Current weather observation

The report was made 16 minutes ago, at 05:51 UTC
Wind 7 mph from the South
Temperature 66°F
Humidity 83%
Pressure 29.92 in. Hg
Visibility: 10 miles
Clear sky

METAR: KSJT 250551Z AUTO 18006KT 10SM CLR 19/16 A2992 RMK AO2 SLP112 T01940161 10272 20189 403000144 51009

Time: 01:07 (06:07 UTC)

Forecast

The report was made 34 minutes ago, at 05:33 UTC
Forecast valid from 25 at 06 UTC to 26 at 06 UTC
Wind 7 mph from the South
Visibility: 6 miles
Clear sky
From 25 at 1600 UTC
Wind 13 mph from the South with gusts up to 21 mph
Visibility: 6 miles
Few clouds at a height of 5000 ft
From 25 at 2100 UTC
Wind 10 mph from the South/Southeast
Visibility: 6 miles
Few clouds at a height of 5000 ft

TAF: KSJT 250533Z 2506/2606 19006KT P6SM SKC FM251600 18011G18KT P6SM FEW050 FM252100 15009KT P6SM FEW050

Weather observations and forecasts of more than 4000 airports (METAR and TAF reports).

The available stations are represented by yellow and red dots on the map.

Hover mouse over dot to see the name of the station.

Then click to see weather observations and forecasts.

To change the map : click on the green buttons with a black cross to zoom in, on the green button with a dash to zoom out, or on the green arrows for adjacent maps.


METAR-TAF: